Time,TemperatureF,DewpointF,PressureIn,WindDirection,WindDirectionDegrees,WindSpeedMPH,WindSpeedGustMPH,Humidity,HourlyPrecipIn,Conditions,Clouds,dailyrainin,SoftwareType,DateUTC
2013-07-21 00:52:00,51.0,39.0,30.05,NNW,339,1.0,-999.0,64,-99.99,,,-99.99,,2013-07-21 06:52:00,
2013-07-21 01:11:00,49.0,38.0,30.04,NNW,344,0.0,-999.0,65,-99.99,,,-99.99,,2013-07-21 07:11:00,
2013-07-21 02:52:00,45.0,35.0,30.04,North,11,1.0,-999.0,68,-99.99,,,-99.99,,2013-07-21 08:52:00,
2013-07-21 04:22:00,42.0,35.0,30.06,North,11,0.0,-999.0,77,-99.99,,,-99.99,,2013-07-21 10:22:00,
2013-07-21 05:02:00,42.0,35.0,30.06,NNE,26,1.0,-999.0,75,-99.99,,,-99.99,,2013-07-21 11:02:00,
2013-07-21 05:11:00,44.0,37.0,30.07,North,350,1.0,-999.0,75,-99.99,,,-99.99,,2013-07-21 11:11:00,
2013-07-21 05:32:00,41.0,33.0,30.07,North,9,1.0,-999.0,74,-99.99,,,-99.99,,2013-07-21 11:32:00,
2013-07-21 06:11:00,38.0,34.0,30.09,NNE,16,0.0,-999.0,85,-99.99,,,-99.99,,2013-07-21 12:11:00,
2013-07-21 06:22:00,39.0,35.0,30.09,NNE,16,0.0,-999.0,84,-99.99,,,-99.99,,2013-07-21 12:22:00,
2013-07-21 06:53:00,40.0,35.0,30.09,East,86,1.0,-999.0,83,-99.99,,,-99.99,,2013-07-21 12:53:00,
2013-07-21 07:01:00,41.0,36.0,30.10,ENE,62,1.0,-999.0,82,-99.99,,,-99.99,,2013-07-21 13:01:00,
2013-07-21 07:11:00,42.0,37.0,30.10,ENE,62,1.0,-999.0,81,-99.99,,,-99.99,,2013-07-21 13:11:00,
2013-07-21 07:42:00,49.0,40.0,30.11,NNW,348,0.0,-999.0,71,-99.99,,,-99.99,,2013-07-21 13:42:00,
2013-07-21 07:52:00,50.0,39.0,30.11,NNW,344,1.0,-999.0,66,-99.99,,,-99.99,,2013-07-21 13:52:00,
2013-07-21 08:01:00,51.0,39.0,30.11,NNW,338,2.0,-999.0,63,-99.99,,,-99.99,,2013-07-21 14:01:00,
2013-07-21 08:43:00,56.0,40.0,30.12,NW,320,0.0,-999.0,54,-99.99,,,-99.99,,2013-07-21 14:43:00,
2013-07-21 10:32:00,68.0,40.0,30.10,North,10,1.0,-999.0,36,-99.99,,,-99.99,,2013-07-21 16:32:00,
2013-07-21 10:42:00,69.0,42.0,30.10,WSW,250,1.0,-999.0,37,-99.99,,,-99.99,,2013-07-21 16:42:00,
2013-07-21 10:52:00,69.0,41.0,30.10,West,267,2.0,-999.0,36,-99.99,,,-99.99,,2013-07-21 16:52:00,
2013-07-21 11:01:00,70.0,40.0,30.09,West,267,2.0,-999.0,33,-99.99,,,-99.99,,2013-07-21 17:01:00,
2013-07-21 11:11:00,70.0,43.0,30.09,WSW,252,2.0,-999.0,37,-99.99,,,-99.99,,2013-07-21 17:11:00,
2013-07-21 11:42:00,74.0,42.0,30.08,SW,232,1.0,-999.0,32,-99.99,,,-99.99,,2013-07-21 17:42:00,
2013-07-21 11:53:00,75.0,42.0,30.08,South,186,1.0,-999.0,31,-99.99,,,-99.99,,2013-07-21 17:53:00,
2013-07-21 13:01:00,81.0,41.0,30.08,SW,223,4.0,-999.0,24,-99.99,,,-99.99,,2013-07-21 19:01:00,
2013-07-21 13:22:00,82.0,41.0,30.08,WSW,248,3.0,-999.0,23,-99.99,,,-99.99,,2013-07-21 19:22:00,
2013-07-21 13:32:00,83.0,36.0,30.08,WSW,244,4.0,-999.0,19,-99.99,,,-99.99,,2013-07-21 19:32:00,
2013-07-21 13:42:00,84.0,36.0,30.07,SSE,155,4.0,-999.0,18,-99.99,,,-99.99,,2013-07-21 19:42:00,
2013-07-21 13:52:00,85.0,34.0,30.06,SSW,197,6.0,-999.0,16,-99.99,,,-99.99,,2013-07-21 19:52:00,
2013-07-21 14:42:00,85.0,32.0,30.07,WNW,296,4.0,-999.0,15,-99.99,,,-99.99,,2013-07-21 20:42:00,
2013-07-21 14:52:00,86.0,29.0,30.07,West,264,5.0,-999.0,13,-99.99,,,-99.99,,2013-07-21 20:52:00,
2013-07-21 15:01:00,86.0,31.0,30.07,South,186,7.0,-999.0,14,-99.99,,,-99.99,,2013-07-21 21:01:00,
2013-07-21 15:11:00,86.0,31.0,30.07,West,267,5.0,-999.0,14,-99.99,,,-99.99,,2013-07-21 21:11:00,
2013-07-21 15:22:00,85.0,32.0,30.07,South,182,4.0,-999.0,15,-99.99,,,-99.99,,2013-07-21 21:22:00,
2013-07-21 15:32:00,85.0,30.0,30.07,SW,219,2.0,-999.0,14,-99.99,,,-99.99,,2013-07-21 21:32:00,
2013-07-21 15:43:00,86.0,33.0,30.07,SSW,205,5.0,-999.0,15,-99.99,,,-99.99,,2013-07-21 21:43:00,
2013-07-21 15:52:00,86.0,35.0,30.06,South,182,6.0,-999.0,16,-99.99,,,-99.99,,2013-07-21 21:52:00,
2013-07-21 16:01:00,87.0,34.0,30.06,WSW,242,8.0,-999.0,15,-99.99,,,-99.99,,2013-07-21 22:01:00,
2013-07-21 16:11:00,87.0,32.0,30.06,SSW,213,7.0,-999.0,14,-99.99,,,-99.99,,2013-07-21 22:11:00,
2013-07-21 16:21:00,87.0,32.0,30.06,West,259,7.0,-999.0,14,-99.99,,,-99.99,,2013-07-21 22:21:00,
2013-07-21 16:42:00,86.0,29.0,30.06,SSE,158,5.0,-999.0,13,-99.99,,,-99.99,,2013-07-21 22:42:00,
2013-07-21 16:52:00,86.0,25.0,30.06,WSW,248,7.0,-999.0,11,-99.99,,,-99.99,,2013-07-21 22:52:00,
2013-07-21 17:11:00,87.0,26.0,30.06,SSW,198,4.0,-999.0,11,-99.99,,,-99.99,,2013-07-21 23:11:00,
2013-07-21 17:42:00,86.0,27.0,30.03,WSW,251,6.0,-999.0,12,-99.99,,,-99.99,,2013-07-21 23:42:00,
2013-07-21 17:52:00,86.0,27.0,30.03,SW,230,5.0,-999.0,12,-99.99,,,-99.99,,2013-07-21 23:52:00,
2013-07-21 18:01:00,85.0,27.0,30.03,WNW,297,7.0,-999.0,12,-99.99,,,-99.99,,2013-07-22 00:01:00,
2013-07-21 18:11:00,85.0,27.0,30.03,West,275,7.0,-999.0,12,-99.99,,,-99.99,,2013-07-22 00:11:00,
2013-07-21 18:22:00,85.0,27.0,30.03,West,275,7.0,-999.0,12,-99.99,,,-99.99,,2013-07-22 00:22:00,
2013-07-21 18:32:00,85.0,27.0,30.03,West,275,7.0,-999.0,12,-99.99,,,-99.99,,2013-07-22 00:32:00,
2013-07-21 18:42:00,85.0,27.0,30.03,West,275,7.0,-999.0,12,-99.99,,,-99.99,,2013-07-22 00:42:00,
2013-07-21 18:52:00,85.0,27.0,30.03,West,275,7.0,-999.0,12,-99.99,,,-99.99,,2013-07-22 00:52:00,